Time;durP1;ratioP1;P1;durP2;ratioP2;P2;SDS_P1;SDS_P2;PMS_P1;PMS_P2;Temp;Humidity;BMP_temperature;BMP_pressure;BME280_temperature;BME280_humidity;BME280_pressure;Samples;Min_cycle;Max_cycle;Signal;HPM_P1;HPM_P2
2022/03/12 00:00:01;;;;;;;16.10;5.38;;;;;;;;;;4945292;28;20102;-69
2022/03/12 00:02:31;;;;;;;7.28;4.85;;;;;;;;;;4982359;28;20055;-69
2022/03/12 00:04:58;;;;;;;12.55;5.53;;;;;;;;;;4949964;28;20090;-69
2022/03/12 00:07:27;;;;;;;9.70;5.10;;;;;;;;;;4951200;28;20059;-69
2022/03/12 00:09:54;;;;;;;11.82;5.65;;;;;;;;;;4981999;28;20163;-69
2022/03/12 00:12:24;;;;;;;12.68;5.15;;;;;;;;;;4946805;28;20051;-69
2022/03/12 00:14:51;;;;;;;9.32;5.30;;;;;;;;;;4949646;28;20090;-69
2022/03/12 00:17:20;;;;;;;12.38;4.93;;;;;;;;;;4951503;28;20055;-69
2022/03/12 00:19:48;;;;;;;9.30;5.30;;;;;;;;;;4965494;28;20055;-69
2022/03/12 00:22:15;;;;;;;7.70;5.13;;;;;;;;;;4949668;28;20063;-69
2022/03/12 00:24:43;;;;;;;10.13;5.32;;;;;;;;;;4950479;28;20449;-69
2022/03/12 00:27:11;;;;;;;8.90;4.70;;;;;;;;;;4948161;28;20474;-69
2022/03/12 00:29:40;;;;;;;8.15;5.10;;;;;;;;;;4949319;28;20047;-69
2022/03/12 00:32:08;;;;;;;13.98;5.30;;;;;;;;;;4947768;28;20413;-69
2022/03/12 00:34:35;;;;;;;11.30;5.15;;;;;;;;;;4948841;28;20109;-69
2022/03/12 00:37:03;;;;;;;9.05;4.75;;;;;;;;;;4948024;28;20055;-69
2022/03/12 00:39:30;;;;;;;10.82;5.22;;;;;;;;;;4948815;28;20062;-69
2022/03/12 00:41:57;;;;;;;9.77;5.28;;;;;;;;;;4946061;28;20635;-69
2022/03/12 00:44:24;;;;;;;9.63;4.93;;;;;;;;;;4978991;28;20051;-69
2022/03/12 00:46:53;;;;;;;10.55;5.53;;;;;;;;;;4948565;28;20126;-69
2022/03/12 00:49:20;;;;;;;12.13;5.10;;;;;;;;;;4948052;28;20059;-69
2022/03/12 00:51:48;;;;;;;10.50;5.70;;;;;;;;;;4950483;28;20055;-69
2022/03/12 00:54:15;;;;;;;11.70;5.00;;;;;;;;;;4947206;28;20059;-69
2022/03/12 00:56:42;;;;;;;13.98;5.93;;;;;;;;;;4939963;28;20055;-69
2022/03/12 00:59:10;;;;;;;9.75;5.05;;;;;;;;;;4980991;28;20059;-69
2022/03/12 01:01:37;;;;;;;10.38;5.20;;;;;;;;;;4945144;28;20073;-69
2022/03/12 01:04:06;;;;;;;11.30;5.10;;;;;;;;;;4954065;28;20062;-69
2022/03/12 01:06:34;;;;;;;9.20;4.97;;;;;;;;;;4958130;28;20047;-69
2022/03/12 01:09:01;;;;;;;10.50;5.43;;;;;;;;;;4951672;28;20054;-69
2022/03/12 01:11:29;;;;;;;13.57;6.55;;;;;;;;;;4982561;28;20528;-69
2022/03/12 01:13:56;;;;;;;10.07;5.18;;;;;;;;;;4951462;28;20069;-69
2022/03/12 01:16:23;;;;;;;10.73;6.03;;;;;;;;;;4953940;28;20540;-69
2022/03/12 01:18:50;;;;;;;8.32;5.43;;;;;;;;;;4954058;28;20355;-69
2022/03/12 01:21:20;;;;;;;8.93;5.65;;;;;;;;;;4951911;28;20059;-69
2022/03/12 01:23:47;;;;;;;10.30;5.68;;;;;;;;;;4955954;28;20054;-69
2022/03/12 01:26:15;;;;;;;11.65;5.30;;;;;;;;;;4952505;28;20059;-69
2022/03/12 01:28:42;;;;;;;10.27;5.38;;;;;;;;;;4951368;28;20115;-69
2022/03/12 01:31:09;;;;;;;10.15;5.13;;;;;;;;;;4955437;28;20058;-69
2022/03/12 01:33:37;;;;;;;8.95;5.40;;;;;;;;;;4987618;28;20050;-69
2022/03/12 01:36:04;;;;;;;9.52;5.63;;;;;;;;;;4951676;28;20505;-69
2022/03/12 01:38:33;;;;;;;12.85;5.45;;;;;;;;;;4979020;28;20050;-69
2022/03/12 01:41:06;;;;;;;10.75;5.60;;;;;;;;;;4950727;28;20069;-69
2022/03/12 01:43:35;;;;;;;10.30;4.97;;;;;;;;;;4965008;28;20553;-69
2022/03/12 01:46:02;;;;;;;10.55;5.65;;;;;;;;;;4982312;28;20050;-69
2022/03/12 01:48:30;;;;;;;10.60;4.90;;;;;;;;;;4950605;28;20039;-69
2022/03/12 01:50:58;;;;;;;9.98;5.05;;;;;;;;;;4952623;28;20082;-69
2022/03/12 01:53:26;;;;;;;8.63;5.13;;;;;;;;;;4947901;28;20477;-69
2022/03/12 01:55:56;;;;;;;11.57;5.32;;;;;;;;;;4983025;28;20089;-69
2022/03/12 01:58:23;;;;;;;14.30;5.40;;;;;;;;;;4948590;28;20050;-69
2022/03/12 02:00:51;;;;;;;15.52;4.90;;;;;;;;;;4945566;28;20149;-69
2022/03/12 02:03:29;;;;;;;10.30;4.97;;;;;;;;;;4952671;28;20062;-69
2022/03/12 02:05:56;;;;;;;12.45;5.70;;;;;;;;;;4949285;28;20055;-69
2022/03/12 02:08:24;;;;;;;7.97;4.85;;;;;;;;;;4946887;28;20139;-69
2022/03/12 02:10:57;;;;;;;10.20;5.38;;;;;;;;;;4953556;28;20109;-69
2022/03/12 02:13:28;;;;;;;8.32;5.07;;;;;;;;;;4949353;28;20118;-69
2022/03/12 02:16:05;;;;;;;12.27;5.38;;;;;;;;;;4949359;28;20054;-69
2022/03/12 02:18:32;;;;;;;10.50;5.25;;;;;;;;;;4949966;28;20097;-69
2022/03/12 02:20:59;;;;;;;13.82;5.80;;;;;;;;;;4948792;28;20063;-69
2022/03/12 02:23:26;;;;;;;12.95;5.50;;;;;;;;;;4950125;28;20046;-69
2022/03/12 02:26:02;;;;;;;12.40;5.18;;;;;;;;;;4948741;28;20109;-69
2022/03/12 02:28:29;;;;;;;10.15;4.80;;;;;;;;;;4948646;28;20406;-69
2022/03/12 02:30:57;;;;;;;11.15;5.07;;;;;;;;;;4948514;28;20061;-69
2022/03/12 02:33:28;;;;;;;12.18;5.38;;;;;;;;;;4950345;28;20072;-69
2022/03/12 02:35:56;;;;;;;8.02;5.20;;;;;;;;;;4980997;28;20070;-69
2022/03/12 02:38:24;;;;;;;8.50;4.95;;;;;;;;;;4981703;28;20063;-69
2022/03/12 02:40:51;;;;;;;10.95;5.13;;;;;;;;;;4947562;28;20050;-69
2022/03/12 02:43:24;;;;;;;10.57;5.60;;;;;;;;;;4952648;28;20059;-69
2022/03/12 02:45:51;;;;;;;9.85;5.78;;;;;;;;;;4982742;28;20106;-69
2022/03/12 02:48:19;;;;;;;9.63;5.03;;;;;;;;;;4952602;28;20050;-69
2022/03/12 02:50:46;;;;;;;10.93;5.65;;;;;;;;;;4950629;28;20062;-69
2022/03/12 02:53:13;;;;;;;8.20;5.00;;;;;;;;;;4955746;28;20104;-69
2022/03/12 02:55:42;;;;;;;10.60;5.55;;;;;;;;;;4947556;28;20062;-69
2022/03/12 02:58:10;;;;;;;12.98;5.22;;;;;;;;;;4947534;28;20055;-69
2022/03/12 03:00:39;;;;;;;12.65;5.10;;;;;;;;;;4948546;28;20047;-69
2022/03/12 03:03:07;;;;;;;11.90;5.57;;;;;;;;;;4948528;28;20685;-69
2022/03/12 03:05:45;;;;;;;10.85;5.40;;;;;;;;;;4947173;28;20082;-69
2022/03/12 03:08:14;;;;;;;12.32;5.80;;;;;;;;;;4967335;28;20476;-69
2022/03/12 03:10:42;;;;;;;11.07;5.68;;;;;;;;;;4951699;28;21018;-69
2022/03/12 03:13:32;;;;;;;10.65;5.82;;;;;;;;;;4951354;28;20113;-69
2022/03/12 03:16:02;;;;;;;11.30;5.70;;;;;;;;;;4947913;28;20054;-69
2022/03/12 03:18:30;;;;;;;9.85;5.15;;;;;;;;;;4950563;28;20077;-69
2022/03/12 03:20:58;;;;;;;11.15;5.28;;;;;;;;;;4948282;28;20386;-69
2022/03/12 03:23:26;;;;;;;9.57;5.43;;;;;;;;;;4951786;28;20556;-69
2022/03/12 03:25:54;;;;;;;9.20;5.88;;;;;;;;;;4947859;28;20058;-69
2022/03/12 03:28:21;;;;;;;8.82;5.97;;;;;;;;;;4948760;28;20058;-69
2022/03/12 03:30:48;;;;;;;9.98;5.60;;;;;;;;;;4948676;28;20055;-69
2022/03/12 03:33:18;;;;;;;10.52;5.93;;;;;;;;;;4949968;28;20087;-69
2022/03/12 03:35:45;;;;;;;12.95;5.43;;;;;;;;;;4954562;28;20058;-69
2022/03/12 03:38:13;;;;;;;8.80;5.60;;;;;;;;;;4956085;28;20050;-69
2022/03/12 03:40:42;;;;;;;12.90;6.78;;;;;;;;;;4980129;28;20042;-69
2022/03/12 03:43:10;;;;;;;11.43;5.93;;;;;;;;;;4981496;28;20117;-69
2022/03/12 03:45:37;;;;;;;9.13;5.70;;;;;;;;;;4947686;28;20055;-69
2022/03/12 03:48:05;;;;;;;11.40;5.68;;;;;;;;;;4950179;28;20062;-69
2022/03/12 03:50:34;;;;;;;9.80;5.53;;;;;;;;;;4951374;28;20425;-69
2022/03/12 03:53:03;;;;;;;10.60;5.78;;;;;;;;;;4948913;28;20067;-69
2022/03/12 03:55:31;;;;;;;14.25;6.03;;;;;;;;;;4947677;28;20122;-69
2022/03/12 03:57:59;;;;;;;9.68;6.20;;;;;;;;;;4978337;28;20631;-69
2022/03/12 04:00:26;;;;;;;17.73;6.32;;;;;;;;;;4948040;28;20054;-69
2022/03/12 04:03:01;;;;;;;14.73;6.18;;;;;;;;;;4980398;28;20110;-69
2022/03/12 04:05:28;;;;;;;11.00;6.43;;;;;;;;;;4965764;28;20051;-69
2022/03/12 04:07:57;;;;;;;11.05;6.55;;;;;;;;;;4971698;28;20054;-69
2022/03/12 04:10:24;;;;;;;11.43;6.50;;;;;;;;;;4954036;28;20050;-69
2022/03/12 04:12:52;;;;;;;10.25;6.15;;;;;;;;;;4974081;28;20078;-69
2022/03/12 04:15:20;;;;;;;14.18;6.75;;;;;;;;;;4951371;28;20047;-69
2022/03/12 04:17:47;;;;;;;11.05;6.43;;;;;;;;;;4954722;28;20054;-69
2022/03/12 04:20:18;;;;;;;13.43;7.00;;;;;;;;;;4951006;28;20480;-69
2022/03/12 04:22:45;;;;;;;14.63;6.75;;;;;;;;;;4951403;28;20460;-69
2022/03/12 04:25:14;;;;;;;10.07;6.93;;;;;;;;;;4957117;28;20058;-69
2022/03/12 04:27:44;;;;;;;12.05;7.20;;;;;;;;;;4950201;28;20057;-69
2022/03/12 04:30:12;;;;;;;13.43;7.82;;;;;;;;;;4969082;28;20058;-69
2022/03/12 04:32:40;;;;;;;13.50;8.00;;;;;;;;;;4963363;28;20137;-69
2022/03/12 04:35:07;;;;;;;13.95;7.78;;;;;;;;;;4951936;28;20109;-69
2022/03/12 04:37:35;;;;;;;15.20;7.43;;;;;;;;;;4984349;28;20059;-69
2022/03/12 04:40:03;;;;;;;11.90;7.40;;;;;;;;;;4951060;28;20452;-69
2022/03/12 04:42:32;;;;;;;13.45;7.55;;;;;;;;;;4946868;28;20050;-69
2022/03/12 04:44:59;;;;;;;16.38;7.53;;;;;;;;;;4950985;28;20054;-69
2022/03/12 04:47:26;;;;;;;11.48;7.25;;;;;;;;;;4986640;28;20081;-69
2022/03/12 04:49:54;;;;;;;16.02;7.15;;;;;;;;;;4982988;28;20405;-69
2022/03/12 04:52:22;;;;;;;12.20;7.97;;;;;;;;;;4985969;28;20137;-69
2022/03/12 04:54:49;;;;;;;13.20;7.88;;;;;;;;;;4955428;28;20060;-69
2022/03/12 04:57:16;;;;;;;13.35;7.90;;;;;;;;;;4984346;28;20046;-70
2022/03/12 04:59:45;;;;;;;14.82;7.75;;;;;;;;;;4955372;28;20433;-69
2022/03/12 05:02:13;;;;;;;11.93;7.88;;;;;;;;;;4957718;28;20140;-69
2022/03/12 05:04:40;;;;;;;12.43;7.93;;;;;;;;;;4947693;28;20113;-69
2022/03/12 05:07:09;;;;;;;18.55;8.02;;;;;;;;;;4982912;28;20464;-69
2022/03/12 05:09:36;;;;;;;12.40;7.40;;;;;;;;;;4946360;28;20085;-69
2022/03/12 05:12:05;;;;;;;13.85;7.90;;;;;;;;;;4951681;28;20062;-69
2022/03/12 05:14:35;;;;;;;13.85;8.30;;;;;;;;;;4960689;28;20135;-69
2022/03/12 05:17:08;;;;;;;14.00;8.27;;;;;;;;;;4951561;28;20061;-69
2022/03/12 05:19:36;;;;;;;14.82;7.88;;;;;;;;;;4948484;28;20078;-69
2022/03/12 05:22:04;;;;;;;14.75;8.50;;;;;;;;;;4953498;28;20117;-69
2022/03/12 05:24:31;;;;;;;11.90;7.93;;;;;;;;;;4978411;28;20138;-69
2022/03/12 05:26:59;;;;;;;15.40;8.57;;;;;;;;;;4967571;28;20062;-67
2022/03/12 05:29:27;;;;;;;15.05;7.85;;;;;;;;;;4950672;28;20042;-69
2022/03/12 05:31:54;;;;;;;12.55;8.15;;;;;;;;;;4944204;28;20105;-69
2022/03/12 05:34:24;;;;;;;14.00;8.88;;;;;;;;;;4941716;28;20068;-69
2022/03/12 05:36:51;;;;;;;11.95;8.35;;;;;;;;;;4941919;28;20054;-69
2022/03/12 05:39:19;;;;;;;17.35;9.00;;;;;;;;;;4972836;28;20054;-69
2022/03/12 05:41:48;;;;;;;14.63;9.20;;;;;;;;;;4976134;28;20046;-69
2022/03/12 05:44:16;;;;;;;15.27;8.15;;;;;;;;;;4974469;28;20082;-69
2022/03/12 05:46:44;;;;;;;13.27;8.10;;;;;;;;;;4940826;28;20047;-69
2022/03/12 05:49:11;;;;;;;13.95;8.38;;;;;;;;;;4973178;28;20106;-69
2022/03/12 05:51:43;;;;;;;14.38;8.40;;;;;;;;;;4971084;28;20051;-69
2022/03/12 05:54:11;;;;;;;15.00;8.80;;;;;;;;;;4941889;28;20137;-69
2022/03/12 05:56:40;;;;;;;11.50;7.45;;;;;;;;;;4941551;28;20055;-69
2022/03/12 05:59:08;;;;;;;14.82;7.70;;;;;;;;;;4953209;28;20153;-69
2022/03/12 06:01:35;;;;;;;12.70;8.68;;;;;;;;;;4951076;28;20066;-69
2022/03/12 06:04:03;;;;;;;11.93;7.22;;;;;;;;;;4939586;28;20050;-69
2022/03/12 06:06:34;;;;;;;12.80;7.55;;;;;;;;;;4948709;28;20051;-69
2022/03/12 06:09:05;;;;;;;11.07;7.28;;;;;;;;;;4965447;28;20055;-69
2022/03/12 06:11:32;;;;;;;13.02;7.80;;;;;;;;;;4951812;28;20058;-69
2022/03/12 06:14:00;;;;;;;14.15;7.63;;;;;;;;;;4966494;28;20139;-69
2022/03/12 06:16:28;;;;;;;18.10;7.38;;;;;;;;;;4951459;28;20453;-69
2022/03/12 06:18:55;;;;;;;13.13;7.55;;;;;;;;;;4965235;28;20062;-69
2022/03/12 06:21:23;;;;;;;15.63;7.35;;;;;;;;;;4933345;28;20055;-69
2022/03/12 06:23:51;;;;;;;11.98;7.35;;;;;;;;;;4936582;28;20109;-69
2022/03/12 06:26:24;;;;;;;13.63;7.07;;;;;;;;;;4936752;28;20047;-69
2022/03/12 06:28:51;;;;;;;;;;;;;;;;;;4935808;28;20050;-69
2022/03/12 06:31:19;;;;;;;13.90;7.22;;;;;;;;;;4967526;28;19933;-69
2022/03/12 06:33:46;;;;;;;17.50;7.97;;;;;;;;;;4932945;28;20066;-69
2022/03/12 06:36:13;;;;;;;13.43;7.13;;;;;;;;;;4966534;28;22482;-69
2022/03/12 06:38:41;;;;;;;11.98;7.18;;;;;;;;;;4939055;28;20059;-69
2022/03/12 06:41:08;;;;;;;15.95;8.38;;;;;;;;;;4938154;28;20062;-69
2022/03/12 06:43:42;;;;;;;11.75;7.55;;;;;;;;;;4940672;28;20567;-69
2022/03/12 06:46:14;;;;;;;15.40;7.70;;;;;;;;;;4939877;28;20059;-69
2022/03/12 06:48:42;;;;;;;11.25;7.00;;;;;;;;;;4938351;28;20070;-69
2022/03/12 06:51:10;;;;;;;14.85;7.82;;;;;;;;;;4948350;28;20565;-69
2022/03/12 06:53:37;;;;;;;12.52;7.38;;;;;;;;;;4937476;28;20055;-69
2022/03/12 06:56:06;;;;;;;13.68;8.38;;;;;;;;;;4940232;28;20057;-69
2022/03/12 06:58:33;;;;;;;12.20;7.82;;;;;;;;;;4936838;28;20449;-69
2022/03/12 07:01:02;;;;;;;16.83;7.90;;;;;;;;;;4938383;28;20062;-70
2022/03/12 07:03:29;;;;;;;16.95;8.10;;;;;;;;;;4938351;28;20051;-70
2022/03/12 07:05:56;;;;;;;14.50;7.50;;;;;;;;;;4932111;28;20114;-69
2022/03/12 07:08:23;;;;;;;13.48;8.05;;;;;;;;;;4916551;29;20051;-69
2022/03/12 07:10:51;;;;;;;12.40;7.90;;;;;;;;;;4915025;29;20056;-69
2022/03/12 07:13:18;;;;;;;15.05;8.07;;;;;;;;;;4947255;28;20058;-69
2022/03/12 07:15:45;;;;;;;13.88;7.32;;;;;;;;;;4912172;29;20063;-69
2022/03/12 07:18:14;;;;;;;11.63;7.50;;;;;;;;;;4928654;28;20056;-69
2022/03/12 07:20:41;;;;;;;19.15;7.75;;;;;;;;;;4914199;29;20054;-69
2022/03/12 07:23:08;;;;;;;12.48;7.80;;;;;;;;;;4915859;29;20525;-69
2022/03/12 07:25:35;;;;;;;15.50;7.47;;;;;;;;;;4911201;29;20075;-70
2022/03/12 07:28:03;;;;;;;10.70;7.57;;;;;;;;;;4947616;28;20058;-69
2022/03/12 07:30:30;;;;;;;13.75;7.72;;;;;;;;;;4918959;29;20054;-70
2022/03/12 07:32:58;;;;;;;13.80;7.47;;;;;;;;;;4916704;29;20392;-70
2022/03/12 07:35:26;;;;;;;13.00;8.43;;;;;;;;;;4917277;29;20466;-70
2022/03/12 07:37:54;;;;;;;15.75;8.40;;;;;;;;;;4918759;29;20373;-70
2022/03/12 07:40:21;;;;;;;14.40;7.55;;;;;;;;;;4918513;29;20407;-70
2022/03/12 07:42:48;;;;;;;13.05;8.18;;;;;;;;;;4921539;29;20392;-70
2022/03/12 07:45:16;;;;;;;11.80;8.38;;;;;;;;;;4922541;29;20063;-70
2022/03/12 07:47:44;;;;;;;12.45;7.38;;;;;;;;;;4951442;28;20059;-69
2022/03/12 07:50:11;;;;;;;14.25;8.18;;;;;;;;;;4934246;28;21329;-69
2022/03/12 07:52:40;;;;;;;11.77;8.13;;;;;;;;;;4953418;28;20052;-69
2022/03/12 07:55:09;;;;;;;12.68;8.18;;;;;;;;;;4920659;29;20070;-69
2022/03/12 07:57:36;;;;;;;12.93;8.18;;;;;;;;;;4923157;29;20130;-70
2022/03/12 08:00:07;;;;;;;12.35;7.55;;;;;;;;;;4920266;29;20056;-70
2022/03/12 08:02:34;;;;;;;13.15;8.27;;;;;;;;;;4925447;29;20410;-70
2022/03/12 08:05:01;;;;;;;14.02;8.38;;;;;;;;;;4942518;28;20059;-69
2022/03/12 08:07:30;;;;;;;12.13;8.00;;;;;;;;;;4947657;28;20055;-69
2022/03/12 08:09:59;;;;;;;12.85;8.40;;;;;;;;;;4965636;28;20070;-69
2022/03/12 08:12:30;;;;;;;14.65;8.98;;;;;;;;;;4947675;28;20062;-69
2022/03/12 08:14:57;;;;;;;14.70;8.77;;;;;;;;;;4951106;28;20091;-69
2022/03/12 08:17:25;;;;;;;12.80;8.15;;;;;;;;;;4955937;28;20112;-69
2022/03/12 08:19:52;;;;;;;22.25;12.85;;;;;;;;;;4980076;28;21682;-69
2022/03/12 08:22:19;;;;;;;14.00;9.05;;;;;;;;;;4946753;28;20059;-69
2022/03/12 08:24:47;;;;;;;16.30;8.93;;;;;;;;;;4955123;28;20138;-69
2022/03/12 08:27:15;;;;;;;17.77;8.63;;;;;;;;;;4976400;28;20071;-69
2022/03/12 08:29:44;;;;;;;16.60;9.20;;;;;;;;;;4951275;28;20047;-69
2022/03/12 08:32:11;;;;;;;13.13;8.52;;;;;;;;;;4939410;28;20919;-69
2022/03/12 08:34:39;;;;;;;12.10;8.38;;;;;;;;;;4945490;28;20096;-69
2022/03/12 08:37:06;;;;;;;18.55;8.95;;;;;;;;;;4946341;28;20144;-69
2022/03/12 08:39:35;;;;;;;17.95;8.75;;;;;;;;;;4942313;28;20565;-69
2022/03/12 08:42:02;;;;;;;14.95;8.95;;;;;;;;;;4948975;28;20066;-69
2022/03/12 08:44:31;;;;;;;15.15;8.50;;;;;;;;;;4944100;28;20058;-69
2022/03/12 08:46:58;;;;;;;17.92;8.48;;;;;;;;;;4940476;28;20429;-69
2022/03/12 08:49:25;;;;;;;13.90;8.55;;;;;;;;;;4944907;28;20047;-69
2022/03/12 08:51:52;;;;;;;14.77;9.32;;;;;;;;;;4940865;28;20056;-69
2022/03/12 08:54:19;;;;;;;11.77;8.15;;;;;;;;;;4947325;28;20506;-69
2022/03/12 08:56:47;;;;;;;16.13;8.63;;;;;;;;;;4954678;28;20051;-69
2022/03/12 08:59:14;;;;;;;13.23;8.50;;;;;;;;;;4948186;28;20059;-69
2022/03/12 09:01:44;;;;;;;14.30;8.63;;;;;;;;;;4940713;28;20414;-69
2022/03/12 09:04:12;;;;;;;13.63;8.82;;;;;;;;;;4938107;28;20518;-69
2022/03/12 09:06:39;;;;;;;15.27;8.90;;;;;;;;;;4922912;29;20062;-69
2022/03/12 09:09:07;;;;;;;15.52;8.68;;;;;;;;;;4919433;29;20048;-69
2022/03/12 09:11:34;;;;;;;15.27;9.32;;;;;;;;;;4918481;29;20495;-69
2022/03/12 09:14:01;;;;;;;13.52;9.38;;;;;;;;;;4920002;29;20519;-69
2022/03/12 09:16:30;;;;;;;14.45;8.73;;;;;;;;;;4920291;29;20136;-69
2022/03/12 09:18:58;;;;;;;16.92;9.32;;;;;;;;;;4924048;29;20111;-69
2022/03/12 09:21:25;;;;;;;15.82;9.30;;;;;;;;;;4923176;29;20051;-69
2022/03/12 09:23:53;;;;;;;15.90;8.50;;;;;;;;;;4924024;29;20056;-69
2022/03/12 09:26:21;;;;;;;12.75;8.60;;;;;;;;;;4924624;29;20073;-69
2022/03/12 09:28:48;;;;;;;16.58;8.20;;;;;;;;;;4927506;29;20056;-69
2022/03/12 09:31:16;;;;;;;14.93;8.45;;;;;;;;;;4926610;29;20139;-69
2022/03/12 09:33:43;;;;;;;14.15;9.25;;;;;;;;;;4925581;29;20056;-69
2022/03/12 09:36:12;;;;;;;17.95;9.30;;;;;;;;;;4926001;29;20103;-70
2022/03/12 09:38:39;;;;;;;14.27;9.00;;;;;;;;;;4924878;29;20519;-70
2022/03/12 09:41:06;;;;;;;13.55;8.00;;;;;;;;;;4926083;29;20760;-70
2022/03/12 09:43:34;;;;;;;13.73;8.27;;;;;;;;;;4925524;29;20075;-70
2022/03/12 09:46:01;;;;;;;13.93;8.32;;;;;;;;;;4925528;29;20067;-70
2022/03/12 09:48:29;;;;;;;12.38;8.32;;;;;;;;;;4925008;29;20577;-70
2022/03/12 09:50:56;;;;;;;12.95;7.57;;;;;;;;;;4926306;29;20046;-70
2022/03/12 09:53:25;;;;;;;11.50;7.85;;;;;;;;;;4926738;29;20078;-70
2022/03/12 09:55:52;;;;;;;11.88;7.22;;;;;;;;;;4925379;29;20123;-70
2022/03/12 09:58:20;;;;;;;13.73;7.93;;;;;;;;;;4925937;29;20508;-70
2022/03/12 10:00:48;;;;;;;12.90;7.97;;;;;;;;;;4925796;29;20044;-70
2022/03/12 10:03:15;;;;;;;12.80;7.60;;;;;;;;;;4925655;29;21984;-70
2022/03/12 10:05:43;;;;;;;13.02;8.07;;;;;;;;;;4941760;28;20059;-70
2022/03/12 10:08:10;;;;;;;13.85;7.47;;;;;;;;;;4954215;28;20125;-70
2022/03/12 10:10:39;;;;;;;10.45;7.20;;;;;;;;;;4954249;28;20063;-70
2022/03/12 10:13:06;;;;;;;13.23;8.20;;;;;;;;;;4951240;28;20142;-70
2022/03/12 10:15:33;;;;;;;9.70;7.18;;;;;;;;;;4951139;28;20552;-70
2022/03/12 10:18:01;;;;;;;14.07;7.70;;;;;;;;;;4950750;28;20055;-70
2022/03/12 10:20:28;;;;;;;10.68;6.97;;;;;;;;;;4954627;28;20058;-70
2022/03/12 10:22:55;;;;;;;12.90;6.93;;;;;;;;;;4950517;28;20075;-70
2022/03/12 10:25:23;;;;;;;9.27;6.72;;;;;;;;;;4952424;28;20063;-70
2022/03/12 10:27:52;;;;;;;12.10;6.80;;;;;;;;;;4943116;28;20055;-70
2022/03/12 10:30:19;;;;;;;10.77;7.07;;;;;;;;;;4953613;28;20077;-70
2022/03/12 10:32:48;;;;;;;12.75;6.93;;;;;;;;;;4977146;28;20066;-70
2022/03/12 10:35:17;;;;;;;12.23;7.78;;;;;;;;;;4950766;28;20466;-70
2022/03/12 10:37:44;;;;;;;11.77;7.00;;;;;;;;;;4945433;28;20055;-70
2022/03/12 10:40:12;;;;;;;13.30;7.75;;;;;;;;;;4951615;28;20569;-70
2022/03/12 10:42:45;;;;;;;10.40;6.13;;;;;;;;;;4949925;28;20046;-70
2022/03/12 10:45:15;;;;;;;9.25;5.65;;;;;;;;;;4947262;28;20118;-70
2022/03/12 10:47:43;;;;;;;11.20;5.57;;;;;;;;;;4939641;28;20059;-70
2022/03/12 10:50:13;;;;;;;9.10;5.35;;;;;;;;;;4943276;28;20047;-70
2022/03/12 10:52:45;;;;;;;10.50;5.63;;;;;;;;;;4948883;28;20054;-70
2022/03/12 10:55:18;;;;;;;12.10;6.20;;;;;;;;;;4947379;28;20055;-70
2022/03/12 10:57:59;;;;;;;9.73;5.65;;;;;;;;;;4976211;28;20061;-70
2022/03/12 11:00:28;;;;;;;8.18;4.78;;;;;;;;;;4945642;28;20062;-70
2022/03/12 11:02:57;;;;;;;9.85;4.40;;;;;;;;;;4939760;28;20065;-70
2022/03/12 11:05:29;;;;;;;9.52;3.17;;;;;;;;;;4947398;28;20055;-70
2022/03/12 11:08:15;;;;;;;8.65;3.30;;;;;;;;;;4944398;28;20063;-70
2022/03/12 11:10:50;;;;;;;8.13;3.85;;;;;;;;;;4944079;28;20055;-70
2022/03/12 11:13:34;;;;;;;7.93;3.55;;;;;;;;;;4951667;28;20070;-70
2022/03/12 11:16:07;;;;;;;6.00;3.00;;;;;;;;;;4947282;28;20107;-70
2022/03/12 11:18:34;;;;;;;9.18;3.60;;;;;;;;;;4948874;28;20070;-70
2022/03/12 11:21:02;;;;;;;7.68;3.40;;;;;;;;;;4982038;28;20110;-70
2022/03/12 11:23:31;;;;;;;6.53;3.17;;;;;;;;;;4951642;28;20139;-70
2022/03/12 11:26:05;;;;;;;7.18;3.28;;;;;;;;;;4952875;28;21431;-70
2022/03/12 11:28:34;;;;;;;7.60;3.60;;;;;;;;;;4950801;28;20129;-70
2022/03/12 11:31:02;;;;;;;7.35;3.45;;;;;;;;;;4949378;28;20126;-70
2022/03/12 11:33:31;;;;;;;6.90;3.45;;;;;;;;;;4952192;28;20059;-70
2022/03/12 11:35:59;;;;;;;8.48;3.72;;;;;;;;;;4953340;28;20055;-70
2022/03/12 11:38:26;;;;;;;10.02;3.88;;;;;;;;;;4950982;28;20050;-70
2022/03/12 11:41:03;;;;;;;7.88;3.90;;;;;;;;;;4951292;28;20055;-70
2022/03/12 11:43:31;;;;;;;8.45;3.90;;;;;;;;;;4951674;28;20090;-70
2022/03/12 11:45:59;;;;;;;9.23;3.40;;;;;;;;;;4947918;28;20131;-70
2022/03/12 11:48:27;;;;;;;5.95;3.30;;;;;;;;;;4952751;28;20490;-70
2022/03/12 11:50:56;;;;;;;8.02;3.15;;;;;;;;;;4950069;28;20090;-70
2022/03/12 11:53:23;;;;;;;6.63;3.40;;;;;;;;;;4962358;28;20047;-70
2022/03/12 11:55:51;;;;;;;8.45;3.53;;;;;;;;;;4946829;28;20114;-70
2022/03/12 11:58:19;;;;;;;7.78;3.40;;;;;;;;;;4952984;28;20429;-70
2022/03/12 12:00:47;;;;;;;9.23;3.20;;;;;;;;;;4979052;28;20490;-70
2022/03/12 12:03:15;;;;;;;6.68;3.30;;;;;;;;;;4953032;28;20550;-70
2022/03/12 12:05:44;;;;;;;11.50;3.90;;;;;;;;;;4947608;28;21070;-70
2022/03/12 12:08:13;;;;;;;7.47;3.40;;;;;;;;;;4954659;28;20050;-70
2022/03/12 12:10:42;;;;;;;6.95;2.90;;;;;;;;;;4950646;28;20057;-70
2022/03/12 12:13:09;;;;;;;8.52;3.55;;;;;;;;;;4951679;28;20043;-70
2022/03/12 12:15:39;;;;;;;8.63;3.90;;;;;;;;;;4950824;28;20059;-70
2022/03/12 12:18:10;;;;;;;8.00;3.75;;;;;;;;;;4951986;28;20053;-70
2022/03/12 12:20:38;;;;;;;7.45;4.18;;;;;;;;;;4951526;28;21666;-70
2022/03/12 12:23:06;;;;;;;12.48;3.75;;;;;;;;;;4948720;28;20135;-70
2022/03/12 12:25:35;;;;;;;7.25;4.30;;;;;;;;;;4950792;28;20054;-70
2022/03/12 12:28:14;;;;;;;9.40;3.95;;;;;;;;;;4978516;28;20589;-68
2022/03/12 12:30:43;;;;;;;10.20;3.63;;;;;;;;;;4949784;28;20085;-67
2022/03/12 12:33:18;;;;;;;9.40;5.07;;;;;;;;;;4950210;28;20115;-67
2022/03/12 12:35:46;;;;;;;8.27;4.45;;;;;;;;;;4948228;28;20081;-67
2022/03/12 12:38:14;;;;;;;7.82;4.38;;;;;;;;;;4953635;28;20110;-67
2022/03/12 12:40:47;;;;;;;6.28;3.97;;;;;;;;;;4946908;28;20055;-68
2022/03/12 12:43:18;;;;;;;7.97;3.90;;;;;;;;;;4951179;28;20051;-68
2022/03/12 12:46:00;;;;;;;8.65;3.92;;;;;;;;;;4963630;28;20063;-68
2022/03/12 12:48:29;;;;;;;8.98;4.03;;;;;;;;;;4950758;28;20557;-68
2022/03/12 12:51:10;;;;;;;7.15;3.83;;;;;;;;;;4950362;28;20122;-68
2022/03/12 12:53:38;;;;;;;6.32;3.97;;;;;;;;;;4948563;28;20139;-69
2022/03/12 12:56:19;;;;;;;7.20;4.07;;;;;;;;;;4951414;28;20094;-70
2022/03/12 12:58:47;;;;;;;9.45;3.95;;;;;;;;;;4950960;28;20520;-70
2022/03/12 13:01:17;;;;;;;8.82;4.07;;;;;;;;;;4952274;28;20414;-70
2022/03/12 13:03:47;;;;;;;5.97;3.92;;;;;;;;;;4982585;28;20050;-70
2022/03/12 13:06:34;;;;;;;6.82;3.97;;;;;;;;;;4950878;28;20134;-70
2022/03/12 13:09:04;;;;;;;7.57;4.10;;;;;;;;;;4950460;28;20055;-70
2022/03/12 13:11:33;;;;;;;8.30;3.95;;;;;;;;;;4953214;28;20054;-69
2022/03/12 13:14:01;;;;;;;7.22;4.10;;;;;;;;;;4949178;28;20189;-69
2022/03/12 13:16:29;;;;;;;10.32;3.78;;;;;;;;;;4947496;28;20078;-69
2022/03/12 13:18:56;;;;;;;7.60;3.60;;;;;;;;;;4979681;28;20521;-69
2022/03/12 13:21:33;;;;;;;6.30;3.88;;;;;;;;;;4947109;28;20066;-69
2022/03/12 13:24:01;;;;;;;8.70;3.83;;;;;;;;;;4950632;28;20063;-69
2022/03/12 13:26:28;;;;;;;8.30;4.05;;;;;;;;;;4977525;28;20078;-69
2022/03/12 13:28:58;;;;;;;6.75;3.78;;;;;;;;;;4953496;28;20055;-69
2022/03/12 13:31:28;;;;;;;8.35;3.95;;;;;;;;;;4981085;28;20051;-69
2022/03/12 13:33:59;;;;;;;7.97;3.30;;;;;;;;;;4949484;28;20051;-69
2022/03/12 13:36:27;;;;;;;7.95;3.80;;;;;;;;;;4946292;28;20058;-69
2022/03/12 13:38:55;;;;;;;7.28;3.25;;;;;;;;;;4950483;28;20063;-69
2022/03/12 13:41:22;;;;;;;5.65;3.42;;;;;;;;;;4954846;28;20564;-69
2022/03/12 13:43:50;;;;;;;7.78;3.70;;;;;;;;;;4954124;28;20572;-69
2022/03/12 13:46:20;;;;;;;7.90;3.55;;;;;;;;;;4952643;28;20070;-69
2022/03/12 13:48:58;;;;;;;8.63;3.92;;;;;;;;;;4946086;28;20122;-69
2022/03/12 13:51:25;;;;;;;5.43;3.25;;;;;;;;;;4949721;28;20055;-69
2022/03/12 13:53:54;;;;;;;6.70;3.35;;;;;;;;;;4950748;28;20079;-69
2022/03/12 13:56:23;;;;;;;4.80;3.40;;;;;;;;;;4950041;28;20050;-69
2022/03/12 13:58:51;;;;;;;8.65;3.03;;;;;;;;;;4952797;28;20445;-69
2022/03/12 14:01:30;;;;;;;6.03;2.80;;;;;;;;;;4956696;28;20054;-69
2022/03/12 14:03:58;;;;;;;8.70;3.17;;;;;;;;;;4945670;28;20059;-69
2022/03/12 14:06:30;;;;;;;7.28;3.25;;;;;;;;;;4952333;28;20055;-69
2022/03/12 14:08:59;;;;;;;7.10;3.40;;;;;;;;;;4953484;28;20122;-69
2022/03/12 14:11:35;;;;;;;6.28;3.33;;;;;;;;;;4965954;28;20046;-69
2022/03/12 14:14:03;;;;;;;6.03;3.40;;;;;;;;;;4952767;28;20121;-69
2022/03/12 14:16:36;;;;;;;5.20;3.10;;;;;;;;;;4947068;28;20047;-69
2022/03/12 14:19:05;;;;;;;9.10;3.70;;;;;;;;;;4949835;28;20063;-69
2022/03/12 14:21:36;;;;;;;6.40;3.83;;;;;;;;;;4953073;28;20489;-69
2022/03/12 14:24:11;;;;;;;7.38;3.38;;;;;;;;;;4948902;28;20157;-69
2022/03/12 14:26:59;;;;;;;8.02;4.07;;;;;;;;;;4953676;28;20091;-69
2022/03/12 14:29:27;;;;;;;9.80;5.10;;;;;;;;;;4946315;28;20053;-69
2022/03/12 14:31:56;;;;;;;5.97;3.17;;;;;;;;;;4951056;28;20702;-69
2022/03/12 14:34:25;;;;;;;6.28;3.63;;;;;;;;;;4948211;28;20051;-69
2022/03/12 14:36:53;;;;;;;10.50;4.30;;;;;;;;;;4951348;28;20121;-69
2022/03/12 14:39:24;;;;;;;7.45;2.97;;;;;;;;;;4955281;28;20086;-69
2022/03/12 14:41:52;;;;;;;6.40;2.80;;;;;;;;;;4978586;28;20046;-69
2022/03/12 14:44:21;;;;;;;4.80;2.72;;;;;;;;;;4955888;28;20051;-69